Time;durP1;ratioP1;P1;durP2;ratioP2;P2;SDS_P1;SDS_P2;PMS_P1;PMS_P2;Temp;Humidity;BMP_temperature;BMP_pressure;BME280_temperature;BME280_humidity;BME280_pressure;Samples;Min_cycle;Max_cycle;Signal;HPM_P1;HPM_P2
2023/02/02 00:00:43;;;;;;;;;;;8.10;99.90;;;;;;5087349;28;20012;-83
2023/02/02 00:03:09;;;;;;;;;;;8.10;99.90;;;;;;5088193;28;19966;-84
2023/02/02 00:05:35;;;;;;;;;;;8.10;99.90;;;;;;5105872;28;19908;-83
2023/02/02 00:08:01;;;;;;;;;;;8.10;99.90;;;;;;5088568;28;20006;-84
2023/02/02 00:10:26;;;;;;;;;;;8.10;99.90;;;;;;5106834;28;20132;-83
2023/02/02 00:12:56;;;;;;;;;;;8.10;99.90;;;;;;5106547;28;19919;-84
2023/02/02 00:15:23;;;;;;;;;;;8.10;99.90;;;;;;5088273;28;19947;-84
2023/02/02 00:17:48;;;;;;;;;;;8.10;99.90;;;;;;5087940;28;19908;-83
2023/02/02 00:20:14;;;;;;;;;;;8.10;99.90;;;;;;5088143;28;19919;-86
2023/02/02 00:22:39;;;;;;;;;;;8.10;99.90;;;;;;5087933;28;19908;-85
2023/02/02 00:25:05;;;;;;;;;;;8.00;99.90;;;;;;5088117;28;19909;-85
2023/02/02 00:27:30;;;;;;;;;;;8.10;99.90;;;;;;5088237;28;19939;-84
2023/02/02 00:29:56;;;;;;;;;;;8.10;99.90;;;;;;5087479;28;20403;-82
2023/02/02 00:32:21;;;;;;;;;;;8.00;99.90;;;;;;5105376;28;19912;-84
2023/02/02 00:34:47;;;;;;;;;;;8.00;99.90;;;;;;5105586;28;19912;-85
2023/02/02 00:37:12;;;;;;;;;;;8.00;99.90;;;;;;5087883;28;19908;-85
2023/02/02 00:39:38;;;;;;;;;;;7.90;99.90;;;;;;5105697;28;19914;-84
2023/02/02 00:42:04;;;;;;;;;;;7.90;99.90;;;;;;5086211;28;20061;-84
2023/02/02 00:45:14;;;;;;;;;;;7.90;99.90;;;;;;5087956;28;20017;-84
2023/02/02 00:47:33;;;;;;;;;;;7.90;99.90;;;;;;5107702;28;19987;-84
2023/02/02 00:49:58;;;;;;;;;;;8.00;99.90;;;;;;5101353;28;19912;-82
2023/02/02 00:52:24;;;;;;;;;;;8.00;99.90;;;;;;5095114;28;19923;-81
2023/02/02 00:54:49;;;;;;;;;;;8.00;99.90;;;;;;5107531;28;19908;-81
2023/02/02 00:57:15;;;;;;;;;;;8.00;99.90;;;;;;5087260;28;19916;-81
2023/02/02 00:59:41;;;;;;;;;;;8.00;99.90;;;;;;5092009;28;19940;-84
2023/02/02 01:02:07;;;;;;;;;;;8.00;99.90;;;;;;5103195;28;20383;-83
2023/02/02 01:04:33;;;;;;;;;;;8.00;99.90;;;;;;5096069;28;19920;-81
2023/02/02 01:06:58;;;;;;;;;;;8.10;99.90;;;;;;5095172;28;19908;-82
2023/02/02 01:09:24;;;;;;;;;;;8.00;99.90;;;;;;5093133;28;19916;-81
2023/02/02 01:11:49;;;;;;;;;;;8.00;99.90;;;;;;5110590;28;19916;-84
2023/02/02 01:14:15;;;;;;;;;;;8.00;99.90;;;;;;5091950;28;19909;-83
2023/02/02 01:16:40;;;;;;;;;;;8.00;99.90;;;;;;5090807;28;20018;-84
2023/02/02 01:19:06;;;;;;;;;;;8.00;99.90;;;;;;5090552;28;19919;-83
2023/02/02 01:21:31;;;;;;;;;;;8.10;99.90;;;;;;5089675;28;19920;-82
2023/02/02 01:23:57;;;;;;;;;;;8.10;99.90;;;;;;5089964;28;19908;-84
2023/02/02 01:26:22;;;;;;;;;;;8.10;99.90;;;;;;5108738;28;19912;-84
2023/02/02 01:28:48;;;;;;;;;;;8.10;99.90;;;;;;5108176;28;19967;-83
2023/02/02 01:31:17;;;;;;;;;;;8.10;99.90;;;;;;5089994;28;19932;-84
2023/02/02 01:33:43;;;;;;;;;;;8.10;99.90;;;;;;5108994;28;19919;-84
2023/02/02 01:36:11;;;;;;;;;;;8.10;99.90;;;;;;5106900;28;19919;-83
2023/02/02 01:38:36;;;;;;;;;;;8.10;99.90;;;;;;5104999;28;19900;-82
2023/02/02 01:41:03;;;;;;;;;;;8.10;99.90;;;;;;5114831;28;19930;-83
2023/02/02 01:43:28;;;;;;;;;;;8.10;99.90;;;;;;5081524;28;20308;-82
2023/02/02 01:45:55;;;;;;;;;;;8.10;99.90;;;;;;5088827;28;19938;-84
2023/02/02 01:48:23;;;;;;;;;;;8.00;99.90;;;;;;5090416;28;19923;-86
2023/02/02 01:50:52;;;;;;;;;;;7.90;99.90;;;;;;5087042;28;19942;-84
2023/02/02 01:53:18;;;;;;;;;;;7.80;99.90;;;;;;5091776;28;19911;-82
2023/02/02 01:55:44;;;;;;;;;;;7.80;99.90;;;;;;5091811;28;19912;-82
2023/02/02 01:58:12;;;;;;;;;;;7.70;99.90;;;;;;5109724;28;19930;-81
2023/02/02 02:00:39;;;;;;;;;;;7.80;99.90;;;;;;5091383;28;20545;-83
2023/02/02 02:03:07;;;;;;;;;;;7.70;99.90;;;;;;5108929;28;19923;-81
2023/02/02 02:05:35;;;;;;;;;;;7.70;99.90;;;;;;5093280;28;19934;-83
2023/02/02 02:08:09;;;;;;;;;;;7.80;99.90;;;;;;5116970;28;20016;-82
2023/02/02 02:10:34;;;;;;;;;;;7.80;99.90;;;;;;5129890;28;19912;-85
2023/02/02 02:13:00;;;;;;;;;;;7.80;99.90;;;;;;5089377;28;19923;-84
2023/02/02 02:18:20;;;;;;;;;;;7.90;99.90;;;;;;5114485;28;19923;-84
2023/02/02 02:26:32;;;;;;;;;;;8.00;99.90;;;;;;5112077;28;19935;-83
2023/02/02 02:29:09;;;;;;;;;;;8.00;99.90;;;;;;5111654;28;19927;-82
2023/02/02 02:31:38;;;;;;;;;;;7.90;99.90;;;;;;5092506;28;19915;-84
2023/02/02 02:34:22;;;;;;;;;;;7.90;99.90;;;;;;5098864;28;19992;-84
2023/02/02 02:36:50;;;;;;;;;;;7.80;99.90;;;;;;5099168;28;19912;-84
2023/02/02 02:39:22;;;;;;;;;;;7.80;99.90;;;;;;5094118;28;20015;-83
2023/02/02 02:41:50;;;;;;;;;;;7.80;99.90;;;;;;5096220;28;19912;-83
2023/02/02 02:44:17;;;;;;;;;;;7.90;99.90;;;;;;5089792;28;19923;-82
2023/02/02 02:46:43;;;;;;;;;;;7.90;99.90;;;;;;5091366;28;19959;-82
2023/02/02 02:49:09;;;;;;;;;;;7.90;99.90;;;;;;5113727;28;19919;-82
2023/02/02 02:51:40;;;;;;;;;;;7.90;99.90;;;;;;5093684;28;19966;-84
2023/02/02 02:54:06;;;;;;;;;;;7.90;99.90;;;;;;5113757;28;19919;-83
2023/02/02 02:56:38;;;;;;;;;;;8.00;99.90;;;;;;5095756;28;19912;-83
2023/02/02 02:59:17;;;;;;;;;;;8.00;99.90;;;;;;5088930;28;20035;-83
2023/02/02 03:01:50;;;;;;;;;;;8.00;99.90;;;;;;5111908;28;19908;-83
2023/02/02 03:04:26;;;;;;;;;;;8.00;99.90;;;;;;5113388;28;19971;-84
2023/02/02 03:06:52;;;;;;;;;;;8.00;99.90;;;;;;5119429;28;19912;-82
2023/02/02 03:09:20;;;;;;;;;;;8.00;99.90;;;;;;5113774;28;19954;-83
2023/02/02 03:11:46;;;;;;;;;;;8.00;99.90;;;;;;5104540;28;19980;-84
2023/02/02 03:14:11;;;;;;;;;;;8.00;99.90;;;;;;5113637;28;19908;-85
2023/02/02 03:16:37;;;;;;;;;;;8.00;99.90;;;;;;5098832;28;20303;-82
2023/02/02 03:19:04;;;;;;;;;;;8.00;99.90;;;;;;5103596;28;19908;-82
2023/02/02 03:21:30;;;;;;;;;;;7.90;99.90;;;;;;5090848;28;19927;-83
2023/02/02 03:23:55;;;;;;;;;;;7.90;99.90;;;;;;5115469;28;19912;-82
2023/02/02 03:26:21;;;;;;;;;;;7.90;99.90;;;;;;5131442;27;19908;-83
2023/02/02 03:28:47;;;;;;;;;;;7.90;99.90;;;;;;5124654;28;19924;-82
2023/02/02 03:31:12;;;;;;;;;;;7.80;99.90;;;;;;5094609;28;19912;-83
2023/02/02 03:33:38;;;;;;;;;;;7.80;99.90;;;;;;5090045;28;19973;-83
2023/02/02 03:36:04;;;;;;;;;;;7.80;99.90;;;;;;5105136;28;19931;-84
2023/02/02 03:38:29;;;;;;;;;;;7.80;99.90;;;;;;5087906;28;19908;-82
2023/02/02 03:40:55;;;;;;;;;;;7.80;99.90;;;;;;5124073;28;19908;-83
2023/02/02 03:43:21;;;;;;;;;;;7.80;99.90;;;;;;5091983;28;20292;-82
2023/02/02 03:45:47;;;;;;;;;;;7.70;99.90;;;;;;5109896;28;20012;-83
2023/02/02 03:48:12;;;;;;;;;;;7.80;99.90;;;;;;5100567;28;20433;-84
2023/02/02 03:50:38;;;;;;;;;;;7.70;99.90;;;;;;5095581;28;19912;-83
2023/02/02 03:53:04;;;;;;;;;;;7.70;99.90;;;;;;5110087;28;20420;-81
2023/02/02 03:55:29;;;;;;;;;;;7.70;99.90;;;;;;5123273;28;19923;-82
2023/02/02 03:57:55;;;;;;;;;;;7.80;99.90;;;;;;5112014;28;19912;-82
2023/02/02 04:00:20;;;;;;;;;;;7.80;99.90;;;;;;5108645;28;19912;-82
2023/02/02 04:02:46;;;;;;;;;;;7.80;99.90;;;;;;5106089;28;20755;-82
2023/02/02 04:05:11;;;;;;;;;;;7.70;99.90;;;;;;5092174;28;20429;-83
2023/02/02 04:07:37;;;;;;;;;;;7.70;99.90;;;;;;5124133;27;19902;-84
2023/02/02 04:10:03;;;;;;;;;;;7.70;99.90;;;;;;5086344;28;19949;-82
2023/02/02 04:12:29;;;;;;;;;;;7.80;99.90;;;;;;5095993;28;19904;-82
2023/02/02 04:14:54;;;;;;;;;;;7.80;99.90;;;;;;5108411;28;19920;-82
2023/02/02 04:17:20;;;;;;;;;;;7.80;99.90;;;;;;5093701;28;19920;-82
2023/02/02 04:19:45;;;;;;;;;;;7.80;99.90;;;;;;5094780;28;19917;-82
2023/02/02 04:22:11;;;;;;;;;;;7.80;99.90;;;;;;5094664;28;19912;-82
2023/02/02 04:24:36;;;;;;;;;;;7.80;99.90;;;;;;5092306;28;19919;-84
2023/02/02 04:27:02;;;;;;;;;;;7.80;99.90;;;;;;5091987;28;19916;-83
2023/02/02 04:29:27;;;;;;;;;;;7.80;99.90;;;;;;5092435;28;19942;-83
2023/02/02 04:31:53;;;;;;;;;;;7.80;99.90;;;;;;5085540;28;19920;-82
2023/02/02 04:34:19;;;;;;;;;;;7.70;99.90;;;;;;5093400;28;19912;-82
2023/02/02 04:36:44;;;;;;;;;;;7.70;99.90;;;;;;5102722;28;19920;-83
2023/02/02 04:39:10;;;;;;;;;;;7.70;99.90;;;;;;5089866;28;21292;-83
2023/02/02 04:41:36;;;;;;;;;;;7.70;99.90;;;;;;5111138;28;19912;-82
2023/02/02 04:44:01;;;;;;;;;;;7.60;99.90;;;;;;5087302;28;20050;-83
2023/02/02 04:46:27;;;;;;;;;;;7.70;99.90;;;;;;5095869;28;19916;-82
2023/02/02 04:48:52;;;;;;;;;;;7.70;99.90;;;;;;5085960;28;19916;-84
2023/02/02 04:51:18;;;;;;;;;;;7.60;99.90;;;;;;5105655;28;19927;-84
2023/02/02 04:53:44;;;;;;;;;;;7.60;99.90;;;;;;5085157;28;19919;-83
2023/02/02 04:56:17;;;;;;;;;;;7.60;99.90;;;;;;5093158;28;19900;-83
2023/02/02 04:58:43;;;;;;;;;;;7.60;99.90;;;;;;5109766;28;19913;-82
2023/02/02 05:01:13;;;;;;;;;;;7.60;99.90;;;;;;5091000;28;19912;-82
2023/02/02 05:03:39;;;;;;;;;;;7.60;99.90;;;;;;5090286;28;19963;-83
2023/02/02 05:06:05;;;;;;;;;;;7.50;99.90;;;;;;5084048;28;19919;-83
2023/02/02 05:08:30;;;;;;;;;;;7.50;99.90;;;;;;5090466;28;19923;-82
2023/02/02 05:10:56;;;;;;;;;;;7.50;99.90;;;;;;5089038;28;19919;-85
2023/02/02 05:13:22;;;;;;;;;;;7.50;99.90;;;;;;5106817;28;19999;-85
2023/02/02 05:15:47;;;;;;;;;;;7.50;99.90;;;;;;5083513;28;19943;-82
2023/02/02 05:18:13;;;;;;;;;;;7.50;99.90;;;;;;5088401;28;19931;-82
2023/02/02 05:20:38;;;;;;;;;;;7.50;99.90;;;;;;5089066;28;19916;-84
2023/02/02 05:23:04;;;;;;;;;;;7.50;99.90;;;;;;5094444;28;19966;-82
2023/02/02 05:25:29;;;;;;;;;;;7.50;99.90;;;;;;5109168;28;19942;-84
2023/02/02 05:27:55;;;;;;;;;;;7.50;99.90;;;;;;5091883;28;19923;-83
2023/02/02 05:30:20;;;;;;;;;;;7.50;99.90;;;;;;5090628;28;19912;-84
2023/02/02 05:32:46;;;;;;;;;;;7.50;99.90;;;;;;5091762;28;20395;-83
2023/02/02 05:35:11;;;;;;;;;;;7.50;99.90;;;;;;5090677;28;19967;-81
2023/02/02 05:37:37;;;;;;;;;;;7.50;99.90;;;;;;5080900;28;19916;-85
2023/02/02 05:40:03;;;;;;;;;;;7.50;99.90;;;;;;5088682;28;19912;-84
2023/02/02 05:42:28;;;;;;;;;;;7.40;99.90;;;;;;5087137;28;19912;-83
2023/02/02 05:44:53;;;;;;;;;;;7.40;99.90;;;;;;5088870;28;19931;-83
2023/02/02 05:47:20;;;;;;;;;;;7.40;99.90;;;;;;5106023;28;20261;-82
2023/02/02 05:49:46;;;;;;;;;;;7.40;99.90;;;;;;5082823;28;19912;-83
2023/02/02 05:52:16;;;;;;;;;;;7.40;99.90;;;;;;5090289;28;20359;-84
2023/02/02 05:54:42;;;;;;;;;;;7.40;99.90;;;;;;5111785;28;20283;-83
2023/02/02 05:57:09;;;;;;;;;;;7.40;99.90;;;;;;5076135;28;21796;-85
2023/02/02 05:59:35;;;;;;;;;;;7.40;99.90;;;;;;5085847;28;19919;-88
2023/02/02 06:02:00;;;;;;;;;;;7.40;99.90;;;;;;5083823;28;19935;-83
2023/02/02 06:04:26;;;;;;;;;;;7.40;99.90;;;;;;5096891;28;19919;-82
2023/02/02 06:06:51;;;;;;;;;;;7.40;99.90;;;;;;5087149;28;19912;-81
2023/02/02 06:09:17;;;;;;;;;;;7.40;99.90;;;;;;5086117;28;20360;-84
2023/02/02 06:11:43;;;;;;;;;;;7.40;99.90;;;;;;5100783;28;19954;-85
2023/02/02 06:14:08;;;;;;;;;;;7.30;99.90;;;;;;5128860;28;19930;-82
2023/02/02 06:16:34;;;;;;;;;;;7.40;99.90;;;;;;5088984;28;19955;-84
2023/02/02 06:18:59;;;;;;;;;;;7.40;99.90;;;;;;5085147;28;19939;-84
2023/02/02 06:21:25;;;;;;;;;;;7.40;99.90;;;;;;5088630;28;19919;-83
2023/02/02 06:23:51;;;;;;;;;;;7.40;99.90;;;;;;5094703;28;20368;-82
2023/02/02 06:26:17;;;;;;;;;;;7.40;99.90;;;;;;5099279;28;19979;-83
2023/02/02 06:28:46;;;;;;;;;;;7.40;99.90;;;;;;5108043;28;19911;-80
2023/02/02 06:31:12;;;;;;;;;;;7.50;99.90;;;;;;5076171;28;20287;-79
2023/02/02 06:33:37;;;;;;;;;;;7.70;99.90;;;;;;5094007;28;19916;-77
2023/02/02 06:36:04;;;;;;;;;;;7.90;99.90;;;;;;5092352;28;19916;-79
2023/02/02 06:38:30;;;;;;;;;;;7.70;99.90;;;;;;5118308;28;19919;-82
2023/02/02 06:40:59;;;;;;;;;;;7.70;99.90;;;;;;5088515;28;19908;-82
2023/02/02 06:43:24;;;;;;;;;;;7.60;99.90;;;;;;5106310;28;19933;-83
2023/02/02 06:45:53;;;;;;;;;;;7.60;99.90;;;;;;5090042;28;20368;-82
2023/02/02 06:48:18;;;;;;;;;;;7.60;99.90;;;;;;5070865;28;19908;-81
2023/02/02 06:50:44;;;;;;;;;;;7.60;99.90;;;;;;5080682;28;19995;-82
2023/02/02 06:53:09;;;;;;;;;;;7.60;99.90;;;;;;5080872;28;20296;-78
2023/02/02 06:55:35;;;;;;;;;;;7.50;99.90;;;;;;5100126;28;19912;-79
2023/02/02 06:58:01;;;;;;;;;;;7.50;99.90;;;;;;5098642;28;19943;-79
2023/02/02 07:00:27;;;;;;;;;;;7.50;99.90;;;;;;5080670;28;19908;-79
2023/02/02 07:02:53;;;;;;;;;;;7.50;99.90;;;;;;5079777;28;19955;-81
2023/02/02 07:05:20;;;;;;;;;;;7.50;99.90;;;;;;5101971;28;19908;-79
2023/02/02 07:07:46;;;;;;;;;;;7.60;99.90;;;;;;5083199;28;20015;-80
2023/02/02 07:10:11;;;;;;;;;;;7.60;99.90;;;;;;5101924;28;20003;-82
2023/02/02 07:12:37;;;;;;;;;;;7.60;99.90;;;;;;5101389;28;19995;-81
2023/02/02 07:15:03;;;;;;;;;;;7.60;99.90;;;;;;5084220;28;20419;-79
2023/02/02 07:17:28;;;;;;;;;;;7.60;99.90;;;;;;5084244;28;20372;-81
2023/02/02 07:19:54;;;;;;;;;;;7.60;99.90;;;;;;5101858;28;20022;-80
2023/02/02 07:22:19;;;;;;;;;;;7.60;99.90;;;;;;5101790;28;19915;-79
2023/02/02 07:24:45;;;;;;;;;;;7.60;99.90;;;;;;5102953;28;20025;-79
2023/02/02 07:27:10;;;;;;;;;;;7.60;99.90;;;;;;5102302;28;19962;-78
2023/02/02 07:29:36;;;;;;;;;;;7.70;99.90;;;;;;5084170;28;19923;-81
2023/02/02 07:32:01;;;;;;;;;;;7.70;99.90;;;;;;5100112;28;20326;-81
2023/02/02 07:34:26;;;;;;;;;;;7.70;99.90;;;;;;5083942;28;19962;-80
2023/02/02 07:36:52;;;;;;;;;;;7.70;99.90;;;;;;5084240;28;19934;-80
2023/02/02 07:39:17;;;;;;;;;;;7.70;99.90;;;;;;5083378;28;20284;-81
2023/02/02 07:41:43;;;;;;;;;;;7.70;99.90;;;;;;5083587;28;19912;-81
2023/02/02 07:44:11;;;;;;;;;;;7.70;99.90;;;;;;5083239;28;19908;-80
2023/02/02 07:46:36;;;;;;;;;;;7.70;99.90;;;;;;5100173;28;19912;-80
2023/02/02 07:49:02;;;;;;;;;;;7.70;99.90;;;;;;5082367;28;19908;-79
2023/02/02 07:51:27;;;;;;;;;;;7.70;99.90;;;;;;5087464;28;19962;-80
2023/02/02 07:53:53;;;;;;;;;;;7.70;99.90;;;;;;5120798;28;19918;-80
2023/02/02 07:56:20;;;;;;;;;;;7.70;99.90;;;;;;5088170;28;19934;-81
2023/02/02 07:58:46;;;;;;;;;;;7.70;99.90;;;;;;5101614;28;19971;-81
2023/02/02 08:01:12;;;;;;;;;;;7.70;99.90;;;;;;5108879;28;19951;-80
2023/02/02 08:03:38;;;;;;;;;;;7.60;99.90;;;;;;5082611;28;19915;-79
2023/02/02 08:06:24;;;;;;;;;;;7.60;99.90;;;;;;5103523;28;19912;-81
2023/02/02 08:08:50;;;;;;;;;;;7.50;99.90;;;;;;5062902;28;19935;-81
2023/02/02 08:11:17;;;;;;;;;;;7.60;99.90;;;;;;5100086;28;19912;-79
2023/02/02 08:13:43;;;;;;;;;;;7.60;99.90;;;;;;5099538;28;19948;-81
2023/02/02 08:16:09;;;;;;;;;;;7.60;99.90;;;;;;5081603;28;19935;-81
2023/02/02 08:18:34;;;;;;;;;;;7.60;99.90;;;;;;5089225;28;19916;-82
2023/02/02 08:21:01;;;;;;;;;;;7.60;99.90;;;;;;5082884;28;19940;-79
2023/02/02 08:23:26;;;;;;;;;;;7.60;99.90;;;;;;5081673;28;20419;-81
2023/02/02 08:25:52;;;;;;;;;;;7.60;99.90;;;;;;5082422;28;19914;-81
2023/02/02 08:28:18;;;;;;;;;;;7.60;99.90;;;;;;5099823;28;19916;-81
2023/02/02 08:30:44;;;;;;;;;;;7.70;99.90;;;;;;5101082;28;20112;-80
2023/02/02 08:33:09;;;;;;;;;;;7.70;99.90;;;;;;5099757;28;19919;-81
2023/02/02 08:35:39;;;;;;;;;;;7.80;99.90;;;;;;5100183;28;19908;-81
2023/02/02 08:38:06;;;;;;;;;;;7.80;99.90;;;;;;5100059;28;20376;-81
2023/02/02 08:40:32;;;;;;;;;;;7.80;99.90;;;;;;5099970;28;19957;-80
2023/02/02 08:42:58;;;;;;;;;;;7.80;99.90;;;;;;5081316;28;19984;-81
2023/02/02 08:45:24;;;;;;;;;;;7.80;99.90;;;;;;5081232;28;19912;-82
2023/02/02 08:47:49;;;;;;;;;;;7.80;99.90;;;;;;5080756;28;19908;-80
2023/02/02 08:50:15;;;;;;;;;;;7.80;99.90;;;;;;5081696;28;20280;-79
2023/02/02 08:52:41;;;;;;;;;;;7.80;99.90;;;;;;5099046;28;19952;-80
2023/02/02 08:55:06;;;;;;;;;;;7.80;99.90;;;;;;5099141;28;19939;-81
2023/02/02 08:57:33;;;;;;;;;;;7.90;99.90;;;;;;5098888;28;19959;-80
2023/02/02 08:59:58;;;;;;;;;;;7.80;99.90;;;;;;5077373;28;19923;-80
2023/02/02 09:02:24;;;;;;;;;;;7.90;99.90;;;;;;5098675;28;19912;-80
2023/02/02 09:04:49;;;;;;;;;;;7.90;99.90;;;;;;5078659;28;19935;-80
2023/02/02 09:07:15;;;;;;;;;;;7.90;99.90;;;;;;5082677;28;19929;-80
2023/02/02 09:09:40;;;;;;;;;;;7.80;99.90;;;;;;5082216;28;19909;-80
2023/02/02 09:12:06;;;;;;;;;;;7.80;99.90;;;;;;5100349;28;19979;-82
2023/02/02 09:14:31;;;;;;;;;;;7.80;99.90;;;;;;5098962;28;19931;-81
2023/02/02 09:16:57;;;;;;;;;;;7.80;99.90;;;;;;5100368;28;19972;-81
2023/02/02 09:19:22;;;;;;;;;;;7.80;99.90;;;;;;5081357;28;20543;-80
2023/02/02 09:21:48;;;;;;;;;;;7.80;99.90;;;;;;5081529;28;19908;-82
2023/02/02 09:24:14;;;;;;;;;;;7.90;99.90;;;;;;5098766;28;19908;-79
2023/02/02 09:26:40;;;;;;;;;;;7.90;99.90;;;;;;5062028;28;19969;-81
2023/02/02 09:29:06;;;;;;;;;;;8.00;99.90;;;;;;5090265;28;19915;-82
2023/02/02 09:31:33;;;;;;;;;;;8.00;99.90;;;;;;5098431;28;19915;-79
2023/02/02 09:33:59;;;;;;;;;;;8.00;99.90;;;;;;5081564;28;19935;-81
2023/02/02 09:36:25;;;;;;;;;;;8.00;99.90;;;;;;5080029;28;19916;-81
2023/02/02 09:38:51;;;;;;;;;;;8.10;99.90;;;;;;5079216;28;19916;-81
2023/02/02 09:41:28;;;;;;;;;;;8.00;99.90;;;;;;5098030;28;19908;-78
2023/02/02 09:44:00;;;;;;;;;;;8.10;99.90;;;;;;5080186;28;19952;-81
2023/02/02 09:46:30;;;;;;;;;;;8.10;99.90;;;;;;5119723;28;19930;-81
2023/02/02 09:48:56;;;;;;;;;;;8.20;99.90;;;;;;5084454;28;19908;-80
2023/02/02 09:51:24;;;;;;;;;;;8.20;99.90;;;;;;5098669;28;19915;-81
2023/02/02 09:53:51;;;;;;;;;;;8.10;99.90;;;;;;5096450;28;19947;-81
2023/02/02 09:56:31;;;;;;;;;;;8.10;99.90;;;;;;5093907;28;20287;-81
2023/02/02 09:58:58;;;;;;;;;;;8.00;99.90;;;;;;5079472;28;19954;-82
2023/02/02 10:01:26;;;;;;;;;;;8.10;99.90;;;;;;5095293;28;20360;-82
2023/02/02 10:03:54;;;;;;;;;;;8.00;99.90;;;;;;5079763;28;20299;-82
2023/02/02 10:06:37;;;;;;;;;;;8.00;99.90;;;;;;5079003;28;20387;-80
2023/02/02 10:09:05;;;;;;;;;;;8.00;99.90;;;;;;5079043;28;19912;-79
2023/02/02 10:11:39;;;;;;;;;;;8.00;99.90;;;;;;5096963;28;19954;-79
2023/02/02 10:14:10;;;;;;;;;;;7.90;99.90;;;;;;5098278;28;19948;-79
2023/02/02 10:16:37;;;;;;;;;;;8.00;99.90;;;;;;5096958;28;19908;-79
2023/02/02 10:19:04;;;;;;;;;;;8.00;99.90;;;;;;5079693;28;19907;-81
2023/02/02 10:21:48;;;;;;;;;;;7.90;99.90;;;;;;5098636;28;19915;-80
2023/02/02 10:24:25;;;;;;;;;;;8.00;99.90;;;;;;5080727;28;19908;-80
2023/02/02 10:26:52;;;;;;;;;;;8.00;99.90;;;;;;5082357;28;19908;-81
2023/02/02 10:29:17;;;;;;;;;;;8.00;99.90;;;;;;5078264;28;19922;-79
2023/02/02 10:31:43;;;;;;;;;;;8.10;99.90;;;;;;5080253;28;19939;-81
2023/02/02 10:34:31;;;;;;;;;;;8.10;99.90;;;;;;5080736;28;19912;-80
2023/02/02 10:36:56;;;;;;;;;;;8.10;99.90;;;;;;5081314;28;19908;-79
2023/02/02 10:39:42;;;;;;;;;;;8.10;99.90;;;;;;5102906;28;19930;-80
2023/02/02 10:42:19;;;;;;;;;;;8.10;99.90;;;;;;5102876;28;19908;-81
2023/02/02 10:44:44;;;;;;;;;;;8.20;99.90;;;;;;5093024;28;19919;-79
2023/02/02 10:47:15;;;;;;;;;;;8.20;99.90;;;;;;5080972;28;19968;-81
2023/02/02 10:49:40;;;;;;;;;;;8.30;99.90;;;;;;5078312;28;20101;-81
2023/02/02 10:52:06;;;;;;;;;;;8.30;99.90;;;;;;5085252;28;19912;-80
2023/02/02 10:54:44;;;;;;;;;;;8.30;99.90;;;;;;5085490;28;19931;-81
2023/02/02 10:57:11;;;;;;;;;;;8.40;99.90;;;;;;5084045;28;19908;-80
2023/02/02 10:59:49;;;;;;;;;;;8.30;99.90;;;;;;5083447;28;19914;-79
2023/02/02 11:02:14;;;;;;;;;;;8.40;99.90;;;;;;5096644;28;19945;-79
2023/02/02 11:07:24;;;;;;;;;;;8.40;99.90;;;;;;5101792;28;19934;-81
2023/02/02 11:09:51;;;;;;;;;;;8.50;99.90;;;;;;5081516;28;19908;-79
2023/02/02 11:12:24;;;;;;;;;;;8.50;99.90;;;;;;5084836;28;20425;-81
2023/02/02 11:15:10;;;;;;;;;;;8.60;99.90;;;;;;5084198;28;19915;-80
2023/02/02 11:17:35;;;;;;;;;;;8.60;99.90;;;;;;5073000;28;20288;-81
2023/02/02 11:20:01;;;;;;;;;;;8.60;99.90;;;;;;5083625;28;19908;-80
2023/02/02 11:22:34;;;;;;;;;;;8.60;99.90;;;;;;5102337;28;19973;-80
2023/02/02 11:25:01;;;;;;;;;;;8.60;99.90;;;;;;5083886;28;19908;-80
2023/02/02 11:27:28;;;;;;;;;;;8.60;99.90;;;;;;5083144;28;19930;-79
2023/02/02 11:29:55;;;;;;;;;;;8.70;99.90;;;;;;5084790;28;19912;-81
2023/02/02 11:32:24;;;;;;;;;;;8.70;99.90;;;;;;5102574;28;19958;-80
2023/02/02 11:35:08;;;;;;;;;;;8.70;99.90;;;;;;5082339;28;20268;-81
2023/02/02 11:37:34;;;;;;;;;;;8.70;99.90;;;;;;5078345;28;20008;-81
2023/02/02 11:40:35;;;;;;;;;;;8.80;99.90;;;;;;5105877;28;19933;-81
2023/02/02 11:43:05;;;;;;;;;;;8.80;99.90;;;;;;4996803;28;20000;-81
2023/02/02 11:45:38;;;;;;;;;;;8.70;99.90;;;;;;5058545;28;19916;-80
2023/02/02 11:48:15;;;;;;;;;;;8.80;99.90;;;;;;5081501;28;19957;-80
2023/02/02 11:50:45;;;;;;;;;;;8.80;99.90;;;;;;5077577;28;19908;-80
2023/02/02 11:53:23;;;;;;;;;;;8.90;99.90;;;;;;5082483;28;19923;-79
2023/02/02 11:55:49;;;;;;;;;;;8.80;99.90;;;;;;5083157;28;19908;-80
2023/02/02 11:58:17;;;;;;;;;;;8.80;99.90;;;;;;5076115;28;19947;-81
2023/02/02 12:00:46;;;;;;;;;;;8.90;99.90;;;;;;5101069;28;21735;-80
2023/02/02 12:03:22;;;;;;;;;;;8.90;99.90;;;;;;5111639;28;19912;-78
2023/02/02 12:05:49;;;;;;;;;;;8.90;99.90;;;;;;5093772;28;19996;-80
2023/02/02 12:08:14;;;;;;;;;;;9.00;99.90;;;;;;5082217;28;20375;-80
2023/02/02 12:10:43;;;;;;;;;;;9.10;99.90;;;;;;5082409;28;19915;-80
2023/02/02 12:13:13;;;;;;;;;;;9.10;99.90;;;;;;5081376;28;19923;-80
2023/02/02 12:15:38;;;;;;;;;;;9.10;99.90;;;;;;5085266;28;19958;-79
2023/02/02 12:18:19;;;;;;;;;;;9.10;99.90;;;;;;5083956;28;19912;-80
2023/02/02 12:20:50;;;;;;;;;;;9.20;99.90;;;;;;5103549;28;20092;-80
2023/02/02 12:23:16;;;;;;;;;;;9.20;99.90;;;;;;5063569;28;19927;-81
2023/02/02 12:25:47;;;;;;;;;;;9.30;99.90;;;;;;5097714;28;20245;-83
2023/02/02 12:28:31;;;;;;;;;;;9.30;99.90;;;;;;5100182;28;19916;-80
2023/02/02 12:31:15;;;;;;;;;;;9.40;99.90;;;;;;5090313;28;19908;-80
2023/02/02 13:13:58;;;;;;;;;;;9.60;99.90;;;;;;5080433;28;19919;-81
2023/02/02 13:16:25;;;;;;;;;;;9.70;99.90;;;;;;5063730;28;19909;-80
2023/02/02 13:18:54;;;;;;;;;;;9.70;99.90;;;;;;5061844;28;19909;-79
2023/02/02 13:21:21;;;;;;;;;;;9.80;99.90;;;;;;5061967;28;19909;-80
2023/02/02 13:23:50;;;;;;;;;;;9.90;99.90;;;;;;5083077;28;20286;-78
2023/02/02 13:26:19;;;;;;;;;;;10.00;99.90;;;;;;5099457;28;19912;-80
2023/02/02 13:28:44;;;;;;;;;;;9.90;99.90;;;;;;5098595;28;20403;-79
2023/02/02 13:31:16;;;;;;;;;;;10.00;99.90;;;;;;5098956;28;19955;-79
2023/02/02 13:33:44;;;;;;;;;;;9.90;99.90;;;;;;5099683;28;19912;-79
2023/02/02 13:36:34;;;;;;;;;;;9.90;99.90;;;;;;5081137;28;19951;-80
2023/02/02 13:39:01;;;;;;;;;;;10.00;99.90;;;;;;5097738;28;19915;-80
2023/02/02 13:41:27;;;;;;;;;;;9.90;99.90;;;;;;5099552;28;20265;-82
2023/02/02 13:44:12;;;;;;;;;;;9.80;99.90;;;;;;5081910;28;19908;-82
2023/02/02 13:46:46;;;;;;;;;;;9.90;99.90;;;;;;5081061;28;20411;-81
2023/02/02 13:49:18;;;;;;;;;;;9.80;99.90;;;;;;5081502;28;20199;-80
2023/02/02 13:52:07;;;;;;;;;;;9.80;99.90;;;;;;5100137;28;19909;-79
2023/02/02 13:54:46;;;;;;;;;;;9.80;99.90;;;;;;5082925;28;19938;-82
2023/02/02 13:57:24;;;;;;;;;;;9.80;99.90;;;;;;5082484;28;19912;-81
2023/02/02 13:59:49;;;;;;;;;;;9.80;99.90;;;;;;5099678;28;20042;-78
2023/02/02 14:02:29;;;;;;;;;;;9.80;99.90;;;;;;5098534;28;19908;-80
2023/02/02 14:04:56;;;;;;;;;;;9.70;99.90;;;;;;5081471;28;19912;-78
2023/02/02 14:07:27;;;;;;;;;;;9.70;99.90;;;;;;5099289;28;19908;-79
2023/02/02 14:09:52;;;;;;;;;;;9.70;99.90;;;;;;5080416;28;19915;-79
2023/02/02 14:12:26;;;;;;;;;;;9.70;99.90;;;;;;5079414;28;19916;-79
2023/02/02 14:14:52;;;;;;;;;;;9.70;99.90;;;;;;5082318;28;19908;-82
2023/02/02 14:17:20;;;;;;;;;;;9.80;99.90;;;;;;5084765;28;20341;-85
2023/02/02 14:19:50;;;;;;;;;;;9.80;99.90;;;;;;5084167;28;20376;-84
2023/02/02 14:22:17;;;;;;;;;;;9.80;99.90;;;;;;5082467;28;19919;-82
2023/02/02 14:24:44;;;;;;;;;;;9.80;99.90;;;;;;5084622;28;19930;-81
2023/02/02 14:27:10;;;;;;;;;;;9.80;99.90;;;;;;5084227;28;19908;-84
2023/02/02 14:29:44;;;;;;;;;;;9.90;99.90;;;;;;5102976;28;20292;-83
2023/02/02 14:32:27;;;;;;;;;;;9.90;99.90;;;;;;5102683;28;20293;-81
2023/02/02 14:35:23;;;;;;;;;;;9.90;99.90;;;;;;5083872;28;19916;-85
2023/02/02 14:37:48;;;;;;;;;;;9.90;99.90;;;;;;5082793;28;19908;-88
2023/02/02 14:40:32;;;;;;;;;;;9.90;99.90;;;;;;5072656;28;20361;-86
2023/02/02 14:45:48;;;;;;;;;;;9.90;99.90;;;;;;5100451;28;20027;-83
2023/02/02 14:48:24;;;;;;;;;;;9.90;99.90;;;;;;5084386;28;19923;-83
2023/02/02 14:50:52;;;;;;;;;;;9.90;99.90;;;;;;5088114;28;19912;-83
2023/02/02 14:53:32;;;;;;;;;;;9.90;99.90;;;;;;5083147;28;20376;-83
2023/02/02 14:56:12;;;;;;;;;;;9.90;99.90;;;;;;5078754;28;19908;-81
2023/02/02 14:58:40;;;;;;;;;;;10.00;99.90;;;;;;5076469;28;19924;-82
2023/02/02 15:01:09;;;;;;;;;;;9.90;99.90;;;;;;5081800;28;19962;-81
2023/02/02 15:03:54;;;;;;;;;;;10.00;99.90;;;;;;5104141;28;20380;-81
2023/02/02 15:06:36;;;;;;;;;;;10.00;99.90;;;;;;5079319;28;19961;-81
2023/02/02 15:09:26;;;;;;;;;;;10.00;99.90;;;;;;5079994;28;19962;-80
2023/02/02 15:11:58;;;;;;;;;;;10.00;99.90;;;;;;5092460;28;19916;-79
2023/02/02 15:14:44;;;;;;;;;;;9.90;99.90;;;;;;5098945;28;20015;-81
2023/02/02 15:17:23;;;;;;;;;;;9.90;99.90;;;;;;5097614;28;19912;-79
2023/02/02 15:20:05;;;;;;;;;;;9.90;99.90;;;;;;5097948;28;20003;-80
2023/02/02 15:22:42;;;;;;;;;;;9.90;99.90;;;;;;5098212;28;19916;-80
2023/02/02 15:25:17;;;;;;;;;;;9.90;99.90;;;;;;5083435;28;20387;-80
2023/02/02 15:27:45;;;;;;;;;;;9.90;99.90;;;;;;5072964;28;20344;-79
2023/02/02 15:30:12;;;;;;;;;;;9.90;99.90;;;;;;5096240;28;20372;-78